Time;durP1;ratioP1;P1;durP2;ratioP2;P2;SDS_P1;SDS_P2;PMS_P1;PMS_P2;Temp;Humidity;BMP_temperature;BMP_pressure;BME280_temperature;BME280_humidity;BME280_pressure;Samples;Min_cycle;Max_cycle;Signal;HPM_P1;HPM_P2
2022/03/26 00:00:23;;;;;;;17.03;13.33;;;12.90;99.90;;;;;;1022973;29;20118;-65
2022/03/26 00:00:54;;;;;;;18.23;14.20;;;12.90;99.90;;;;;;1022850;29;20093;-63
2022/03/26 00:01:24;;;;;;;16.10;13.37;;;12.90;99.90;;;;;;1023108;29;20028;-65
2022/03/26 00:01:55;;;;;;;16.20;13.37;;;12.90;99.90;;;;;;1023009;29;20019;-62
2022/03/26 00:02:27;;;;;;;17.17;12.47;;;12.90;99.90;;;;;;1023277;29;20031;-62
2022/03/26 00:02:57;;;;;;;16.92;14.48;;;12.80;99.90;;;;;;1023080;29;20054;-62
2022/03/26 00:03:27;;;;;;;16.43;13.37;;;12.90;99.90;;;;;;1023254;29;20058;-62
2022/03/26 00:03:58;;;;;;;16.67;13.73;;;12.90;99.90;;;;;;1022413;29;20027;-63
2022/03/26 00:04:28;;;;;;;15.27;13.17;;;12.90;99.90;;;;;;1022953;29;20027;-63
2022/03/26 00:04:59;;;;;;;16.40;13.97;;;12.80;99.90;;;;;;1022782;29;20027;-63
2022/03/26 00:05:30;;;;;;;17.03;14.27;;;12.80;99.90;;;;;;1022812;29;20099;-64
2022/03/26 00:06:00;;;;;;;18.07;14.23;;;12.80;99.90;;;;;;1023057;29;20046;-63
2022/03/26 00:06:32;;;;;;;14.77;13.17;;;12.80;99.90;;;;;;1022906;29;20478;-65
2022/03/26 00:07:02;;;;;;;20.45;14.05;;;12.80;99.90;;;;;;1023215;29;20043;-64
2022/03/26 00:07:33;;;;;;;16.57;14.17;;;12.80;99.90;;;;;;1023143;29;20110;-64
2022/03/26 00:08:04;;;;;;;20.23;13.50;;;12.80;99.90;;;;;;1023099;29;20019;-63
2022/03/26 00:08:35;;;;;;;16.77;13.73;;;12.80;99.90;;;;;;1023136;29;20015;-62
2022/03/26 00:09:05;;;;;;;20.87;14.33;;;12.80;99.90;;;;;;1023116;29;20254;-62
2022/03/26 00:09:36;;;;;;;16.17;13.90;;;12.80;99.90;;;;;;1023126;29;20012;-63
2022/03/26 00:10:07;;;;;;;17.37;13.93;;;12.80;99.90;;;;;;1022954;29;20015;-63
2022/03/26 00:10:38;;;;;;;17.95;13.85;;;12.80;99.90;;;;;;1023163;29;20075;-63
2022/03/26 00:11:09;;;;;;;18.95;14.55;;;12.80;99.90;;;;;;1023109;29;20013;-65
2022/03/26 00:11:40;;;;;;;20.60;12.97;;;12.80;99.90;;;;;;1023046;29;20022;-63
2022/03/26 00:12:10;;;;;;;20.10;15.13;;;12.80;99.90;;;;;;1023103;29;20043;-63
2022/03/26 00:12:41;;;;;;;18.33;13.50;;;12.80;99.90;;;;;;1023267;29;20419;-64
2022/03/26 00:13:12;;;;;;;16.47;14.77;;;12.70;99.90;;;;;;1019020;29;20035;-63
2022/03/26 00:13:42;;;;;;;20.03;13.50;;;12.80;99.90;;;;;;1019351;29;20020;-63
2022/03/26 00:14:13;;;;;;;17.83;14.70;;;12.80;99.90;;;;;;1019072;29;20023;-63
2022/03/26 00:14:43;;;;;;;17.60;14.60;;;12.80;99.90;;;;;;1019260;29;20474;-63
2022/03/26 00:15:14;;;;;;;17.93;13.80;;;12.80;99.90;;;;;;1019080;29;20016;-63
2022/03/26 00:15:44;;;;;;;16.37;14.10;;;12.70;99.90;;;;;;1018952;29;20016;-64
2022/03/26 00:16:15;;;;;;;17.97;13.73;;;12.70;99.90;;;;;;1018814;29;20020;-62
2022/03/26 00:16:46;;;;;;;17.03;13.93;;;12.70;99.90;;;;;;1020015;29;20031;-63
2022/03/26 00:17:16;;;;;;;17.53;14.17;;;12.70;99.90;;;;;;1022628;29;20019;-63
2022/03/26 00:17:47;;;;;;;17.90;14.03;;;12.70;99.90;;;;;;1023402;29;20395;-64
2022/03/26 00:18:18;;;;;;;19.60;14.27;;;12.70;99.90;;;;;;1022914;28;20415;-63
2022/03/26 00:18:48;;;;;;;17.00;14.47;;;12.70;99.90;;;;;;1022720;29;20382;-62
2022/03/26 00:19:19;;;;;;;18.80;14.37;;;12.70;99.90;;;;;;1022650;29;20591;-65
2022/03/26 00:19:49;;;;;;;16.73;12.73;;;12.70;99.90;;;;;;1022817;29;20470;-67
2022/03/26 00:20:20;;;;;;;18.60;14.13;;;12.70;99.90;;;;;;1022725;29;20439;-64
2022/03/26 00:20:51;;;;;;;17.60;13.77;;;12.60;99.90;;;;;;1023134;29;20360;-64
2022/03/26 00:21:21;;;;;;;19.00;14.20;;;12.60;99.90;;;;;;1023226;29;20016;-65
2022/03/26 00:21:52;;;;;;;17.57;14.57;;;12.70;99.90;;;;;;1022427;29;20012;-64
2022/03/26 00:22:23;;;;;;;16.87;14.63;;;12.70;99.90;;;;;;1022883;29;20077;-63
2022/03/26 00:22:53;;;;;;;15.48;13.38;;;12.60;99.90;;;;;;1022517;29;20023;-64
2022/03/26 00:23:24;;;;;;;18.10;13.60;;;12.60;99.90;;;;;;1022683;29;20114;-63
2022/03/26 00:23:54;;;;;;;18.60;14.67;;;12.60;99.90;;;;;;1022936;29;20024;-63
2022/03/26 00:24:25;;;;;;;18.60;13.07;;;12.60;99.90;;;;;;1023098;29;20034;-63
2022/03/26 00:24:55;;;;;;;17.30;14.13;;;12.60;99.90;;;;;;1022535;29;20015;-63
2022/03/26 00:25:26;;;;;;;17.77;14.57;;;12.60;99.90;;;;;;1018913;29;20110;-62
2022/03/26 00:25:59;;;;;;;16.93;13.07;;;12.60;99.90;;;;;;1018622;29;20078;-63
2022/03/26 00:26:30;;;;;;;17.23;13.25;;;12.60;99.90;;;;;;1019300;29;20035;-63
2022/03/26 00:27:00;;;;;;;17.17;13.03;;;12.50;99.90;;;;;;1023105;28;20027;-63
2022/03/26 00:27:31;;;;;;;16.50;13.77;;;12.60;99.90;;;;;;1027059;28;20026;-64
2022/03/26 00:28:02;;;;;;;16.93;13.00;;;12.60;99.90;;;;;;1027070;28;20104;-62
2022/03/26 00:28:36;;;;;;;18.75;14.38;;;12.60;99.90;;;;;;1026591;28;20030;-64
2022/03/26 00:29:08;;;;;;;22.58;15.07;;;12.60;99.90;;;;;;1022625;29;20094;-63
2022/03/26 00:29:38;;;;;;;18.40;14.38;;;12.60;99.90;;;;;;1022793;29;20052;-63
2022/03/26 00:30:11;;;;;;;19.07;14.33;;;12.50;99.90;;;;;;1022662;29;20023;-63
2022/03/26 00:30:42;;;;;;;16.52;13.18;;;12.50;99.90;;;;;;1022672;29;20026;-63
2022/03/26 00:31:12;;;;;;;15.67;13.87;;;12.50;99.90;;;;;;1022962;28;20106;-63
2022/03/26 00:31:43;;;;;;;20.23;14.37;;;12.50;99.90;;;;;;1026815;28;20015;-63
2022/03/26 00:32:13;;;;;;;16.10;14.27;;;12.50;99.90;;;;;;1026540;28;20529;-64
2022/03/26 00:32:44;;;;;;;20.43;14.00;;;12.50;99.90;;;;;;1022693;29;20091;-63
2022/03/26 00:33:14;;;;;;;17.80;15.07;;;12.50;99.90;;;;;;1022588;29;20519;-64
2022/03/26 00:33:45;;;;;;;17.33;14.13;;;12.50;99.90;;;;;;1022883;29;20467;-63
2022/03/26 00:34:15;;;;;;;16.77;14.40;;;12.50;99.90;;;;;;1022750;29;20528;-63
2022/03/26 00:34:47;;;;;;;18.40;13.83;;;12.50;99.90;;;;;;1022988;29;20101;-63
2022/03/26 00:35:17;;;;;;;17.65;14.07;;;12.50;99.90;;;;;;1022974;29;20023;-64
2022/03/26 00:35:48;;;;;;;16.03;13.80;;;12.50;99.90;;;;;;1023128;29;20383;-63
2022/03/26 00:36:19;;;;;;;18.93;14.33;;;12.50;99.90;;;;;;1022992;29;20019;-63
2022/03/26 00:36:49;;;;;;;19.23;14.60;;;12.50;99.90;;;;;;1023043;29;20026;-63
2022/03/26 00:37:20;;;;;;;16.77;14.53;;;12.50;99.90;;;;;;1022851;29;20102;-63
2022/03/26 00:37:52;;;;;;;17.97;14.43;;;12.40;99.90;;;;;;1023043;29;20387;-62
2022/03/26 00:38:23;;;;;;;19.38;14.75;;;12.40;99.90;;;;;;1023124;29;20027;-63
2022/03/26 00:38:54;;;;;;;16.90;13.57;;;12.50;99.90;;;;;;1022713;29;20026;-64
2022/03/26 00:39:24;;;;;;;19.77;13.83;;;12.40;99.90;;;;;;1023153;29;20023;-63
2022/03/26 00:39:55;;;;;;;16.92;14.13;;;12.40;99.90;;;;;;1022497;29;20050;-63
2022/03/26 00:40:26;;;;;;;18.10;14.83;;;12.40;99.90;;;;;;1022629;29;20063;-62
2022/03/26 00:40:56;;;;;;;17.90;14.77;;;12.40;99.90;;;;;;1022697;29;20024;-62
2022/03/26 00:41:28;;;;;;;19.57;14.27;;;12.40;99.90;;;;;;1022561;29;20027;-62
2022/03/26 00:41:59;;;;;;;21.40;14.80;;;12.40;99.90;;;;;;1022653;29;20031;-62
2022/03/26 00:42:29;;;;;;;17.00;13.27;;;12.40;99.90;;;;;;1022536;29;20039;-64
2022/03/26 00:43:00;;;;;;;17.07;15.17;;;12.40;99.90;;;;;;1022491;29;20023;-64
2022/03/26 00:43:30;;;;;;;18.67;14.87;;;12.40;99.90;;;;;;1023026;29;20078;-64
2022/03/26 00:44:02;;;;;;;17.97;14.70;;;12.40;99.90;;;;;;1022849;29;20019;-62
2022/03/26 00:44:32;;;;;;;18.75;14.20;;;12.40;99.90;;;;;;1022724;29;20047;-62
2022/03/26 00:45:03;;;;;;;16.77;14.03;;;12.40;99.90;;;;;;1022794;28;20023;-63
2022/03/26 00:45:35;;;;;;;17.38;15.23;;;12.40;99.90;;;;;;1022876;28;20123;-62
2022/03/26 00:46:05;;;;;;;20.73;15.50;;;12.30;99.90;;;;;;1022751;28;20521;-63
2022/03/26 00:46:36;;;;;;;18.23;13.73;;;12.30;99.90;;;;;;1022751;28;20465;-62
2022/03/26 00:47:06;;;;;;;17.33;14.13;;;12.30;99.90;;;;;;1022713;28;20677;-63
2022/03/26 00:47:37;;;;;;;17.93;14.70;;;12.30;99.90;;;;;;1022681;28;20158;-63
2022/03/26 00:48:07;;;;;;;19.77;15.53;;;12.30;99.90;;;;;;1022728;29;20016;-63
2022/03/26 00:48:38;;;;;;;20.73;15.60;;;12.30;99.90;;;;;;1022771;29;20007;-62
2022/03/26 00:49:08;;;;;;;16.73;13.93;;;12.30;99.90;;;;;;1022689;29;20668;-63
2022/03/26 00:49:39;;;;;;;17.63;14.93;;;12.30;99.90;;;;;;1022825;29;20018;-63
2022/03/26 00:50:10;;;;;;;19.50;15.50;;;12.30;99.90;;;;;;1018651;28;20027;-63
2022/03/26 00:50:41;;;;;;;21.83;13.93;;;12.30;99.90;;;;;;1021537;28;20107;-63
2022/03/26 00:51:15;;;;;;;21.90;14.60;;;12.30;99.90;;;;;;1022466;29;20023;-63
2022/03/26 00:51:46;;;;;;;21.20;15.45;;;12.30;99.90;;;;;;1022779;29;20477;-64
2022/03/26 00:52:16;;;;;;;17.88;14.10;;;12.30;99.90;;;;;;1022604;28;20506;-64
2022/03/26 00:52:47;;;;;;;17.77;15.30;;;12.30;99.90;;;;;;1022515;29;20454;-64
2022/03/26 00:53:18;;;;;;;19.00;14.67;;;12.30;99.90;;;;;;1022586;29;20107;-63
2022/03/26 00:53:48;;;;;;;19.13;14.63;;;12.30;99.90;;;;;;1022713;29;20439;-64
2022/03/26 00:54:19;;;;;;;21.83;15.20;;;12.20;99.90;;;;;;1019348;29;20498;-63
2022/03/26 00:54:49;;;;;;;16.63;13.83;;;12.20;99.90;;;;;;1018272;29;20213;-64
2022/03/26 00:55:20;;;;;;;18.00;14.83;;;12.20;99.90;;;;;;1018221;29;20011;-63
2022/03/26 00:55:51;;;;;;;17.40;14.53;;;12.20;99.90;;;;;;1018336;29;20557;-65
2022/03/26 00:56:21;;;;;;;16.90;14.20;;;12.20;99.90;;;;;;1018471;29;20075;-65
2022/03/26 00:56:52;;;;;;;17.37;13.67;;;12.20;99.90;;;;;;1018705;29;20034;-64
2022/03/26 00:57:22;;;;;;;17.77;14.97;;;12.20;99.90;;;;;;1018825;29;20016;-64
2022/03/26 00:57:53;;;;;;;21.07;14.70;;;12.20;99.90;;;;;;1022168;29;20027;-62
2022/03/26 00:58:24;;;;;;;17.33;13.53;;;12.20;99.90;;;;;;1022769;29;20027;-64
2022/03/26 00:58:54;;;;;;;19.60;15.77;;;12.20;99.90;;;;;;1022673;29;20074;-64
2022/03/26 00:59:25;;;;;;;19.53;14.83;;;12.20;99.90;;;;;;1022753;29;20534;-65
2022/03/26 00:59:58;;;;;;;20.10;15.33;;;12.20;99.90;;;;;;1022634;29;20019;-63
2022/03/26 01:00:28;;;;;;;16.73;14.00;;;12.20;99.90;;;;;;1022680;29;20166;-63
2022/03/26 01:00:59;;;;;;;19.37;15.37;;;12.20;99.90;;;;;;1022526;29;20023;-63
2022/03/26 01:01:29;;;;;;;19.80;15.13;;;12.10;99.90;;;;;;1022813;29;20023;-62
2022/03/26 01:02:00;;;;;;;19.80;14.73;;;12.20;99.90;;;;;;1022206;29;20142;-63
2022/03/26 01:02:30;;;;;;;15.53;13.47;;;12.20;99.90;;;;;;1022662;29;20035;-63
2022/03/26 01:03:02;;;;;;;20.30;13.73;;;12.20;99.90;;;;;;1022574;29;20447;-63
2022/03/26 01:03:36;;;;;;;17.38;14.48;;;12.20;99.90;;;;;;1022717;29;20027;-65
2022/03/26 01:04:07;;;;;;;16.50;14.32;;;12.20;99.90;;;;;;1022788;29;20490;-64
2022/03/26 01:04:38;;;;;;;17.35;14.02;;;12.20;99.90;;;;;;1022504;29;20078;-65
2022/03/26 01:05:10;;;;;;;19.53;14.20;;;12.20;99.90;;;;;;1022678;29;20027;-64
2022/03/26 01:05:41;;;;;;;17.98;14.63;;;12.10;99.90;;;;;;1022714;29;20126;-63
2022/03/26 01:06:13;;;;;;;21.20;15.47;;;12.10;99.90;;;;;;1022495;29;20019;-64
2022/03/26 01:06:44;;;;;;;17.88;13.55;;;12.10;99.90;;;;;;1022923;28;20259;-62
2022/03/26 01:07:14;;;;;;;19.80;14.40;;;12.10;99.90;;;;;;1022845;29;20020;-62
2022/03/26 01:07:46;;;;;;;21.67;15.70;;;12.10;99.90;;;;;;1022803;29;20030;-65
2022/03/26 01:08:17;;;;;;;17.92;14.23;;;12.10;99.90;;;;;;1023056;29;20047;-62
2022/03/26 01:08:48;;;;;;;17.03;14.43;;;12.10;99.90;;;;;;1022809;29;20027;-63
2022/03/26 01:09:18;;;;;;;19.45;15.38;;;12.10;99.90;;;;;;1022906;29;20442;-63
2022/03/26 01:09:49;;;;;;;19.63;15.33;;;12.10;99.90;;;;;;1023020;29;20910;-63
2022/03/26 01:10:19;;;;;;;17.23;14.37;;;12.10;99.90;;;;;;1022857;29;20359;-63
2022/03/26 01:10:50;;;;;;;19.47;14.37;;;12.10;99.90;;;;;;1023029;29;20437;-63
2022/03/26 01:11:21;;;;;;;20.83;15.37;;;12.10;99.90;;;;;;1022920;29;20038;-64
2022/03/26 01:11:51;;;;;;;23.30;15.15;;;12.10;99.90;;;;;;1022831;29;20073;-63
2022/03/26 01:12:23;;;;;;;19.17;14.27;;;12.10;99.90;;;;;;1022937;29;20070;-63
2022/03/26 01:12:54;;;;;;;17.20;13.77;;;12.10;99.90;;;;;;1022134;29;20596;-63
2022/03/26 01:13:25;;;;;;;17.27;14.23;;;12.10;99.90;;;;;;1023103;29;20398;-63
2022/03/26 01:13:56;;;;;;;18.27;13.73;;;12.10;99.90;;;;;;1022837;29;20828;-63
2022/03/26 01:14:27;;;;;;;16.00;13.90;;;12.10;99.90;;;;;;1022837;29;20023;-63
2022/03/26 01:14:57;;;;;;;17.20;14.13;;;12.00;99.90;;;;;;1022984;29;20015;-63
2022/03/26 01:15:28;;;;;;;18.37;14.10;;;12.00;99.90;;;;;;1022980;29;20563;-62
2022/03/26 01:15:59;;;;;;;15.30;13.65;;;12.00;99.90;;;;;;1023018;29;20051;-62
2022/03/26 01:16:30;;;;;;;17.87;14.47;;;12.00;99.90;;;;;;1022894;29;20085;-65
2022/03/26 01:17:01;;;;;;;17.55;14.77;;;12.00;99.90;;;;;;1022947;29;20022;-63
2022/03/26 01:17:32;;;;;;;17.27;14.27;;;12.00;99.90;;;;;;1022467;29;20027;-63
2022/03/26 01:18:02;;;;;;;19.40;15.07;;;12.00;99.90;;;;;;1022283;29;20019;-62
2022/03/26 01:18:33;;;;;;;18.70;15.20;;;12.00;99.90;;;;;;1022520;29;20062;-63
2022/03/26 01:19:04;;;;;;;18.00;13.67;;;12.00;99.90;;;;;;1022726;29;20090;-63
2022/03/26 01:19:34;;;;;;;20.13;15.53;;;12.00;99.90;;;;;;1022671;29;20037;-62
2022/03/26 01:20:05;;;;;;;17.20;14.13;;;12.00;99.90;;;;;;1022837;29;20027;-64
2022/03/26 01:20:36;;;;;;;17.35;14.57;;;12.00;99.90;;;;;;1022850;29;20088;-64
2022/03/26 01:21:06;;;;;;;18.20;14.57;;;12.00;99.90;;;;;;1022987;29;20140;-63
2022/03/26 01:21:37;;;;;;;18.83;14.33;;;12.00;99.90;;;;;;1022824;29;20070;-63
2022/03/26 01:22:08;;;;;;;20.43;14.20;;;12.00;99.90;;;;;;1022893;29;20534;-63
2022/03/26 01:22:38;;;;;;;17.30;14.87;;;12.00;99.90;;;;;;1022806;29;20019;-63
2022/03/26 01:23:09;;;;;;;16.97;13.87;;;12.00;99.90;;;;;;1022446;29;20263;-63
2022/03/26 01:23:40;;;;;;;17.50;13.93;;;12.00;99.90;;;;;;1026642;28;20102;-63
2022/03/26 01:24:10;;;;;;;18.47;14.00;;;12.00;99.90;;;;;;1026629;28;20050;-63
2022/03/26 01:24:41;;;;;;;18.63;14.20;;;12.00;99.90;;;;;;1026883;28;20023;-62
2022/03/26 01:25:11;;;;;;;18.67;15.17;;;12.00;99.90;;;;;;1026707;28;20026;-63
2022/03/26 01:25:42;;;;;;;15.67;13.37;;;12.00;99.90;;;;;;1026949;28;20420;-63
2022/03/26 01:26:14;;;;;;;18.53;13.30;;;12.00;99.90;;;;;;1026764;28;20687;-64
2022/03/26 01:26:45;;;;;;;17.80;14.70;;;12.00;99.90;;;;;;1026805;28;20026;-64
2022/03/26 01:27:15;;;;;;;16.63;13.97;;;12.00;99.90;;;;;;1026752;28;20086;-64
2022/03/26 01:27:46;;;;;;;24.17;13.40;;;12.00;99.90;;;;;;1026898;28;20019;-64
2022/03/26 01:28:17;;;;;;;17.57;14.97;;;12.00;99.90;;;;;;1024975;28;20023;-64
2022/03/26 01:28:48;;;;;;;18.92;14.20;;;12.00;99.90;;;;;;1022994;29;20027;-64
2022/03/26 01:29:19;;;;;;;19.50;13.90;;;12.00;99.90;;;;;;1022879;29;20098;-63
2022/03/26 01:29:49;;;;;;;16.50;13.73;;;11.90;99.90;;;;;;1022511;28;20015;-63
2022/03/26 01:30:20;;;;;;;19.67;14.43;;;11.90;99.90;;;;;;1022685;29;20023;-64
2022/03/26 01:30:50;;;;;;;17.53;13.40;;;11.90;99.90;;;;;;1022534;29;20024;-63
2022/03/26 01:31:22;;;;;;;17.50;14.57;;;11.90;99.90;;;;;;1022875;29;20020;-64
2022/03/26 01:31:53;;;;;;;17.33;12.95;;;11.90;99.90;;;;;;1022818;28;20463;-66
2022/03/26 01:32:24;;;;;;;17.83;14.60;;;11.90;99.90;;;;;;1022985;28;20467;-65
2022/03/26 01:32:55;;;;;;;19.40;14.70;;;11.90;99.90;;;;;;1022804;29;20506;-62
2022/03/26 01:33:26;;;;;;;15.95;13.77;;;11.90;99.90;;;;;;1022651;28;20573;-62
2022/03/26 01:33:56;;;;;;;17.80;13.52;;;11.90;99.90;;;;;;1022881;29;20020;-63
2022/03/26 01:34:27;;;;;;;18.97;14.03;;;11.90;99.90;;;;;;1022865;29;20031;-63
2022/03/26 01:34:58;;;;;;;17.77;13.43;;;11.90;99.90;;;;;;1022796;29;20105;-63
2022/03/26 01:35:28;;;;;;;20.13;14.80;;;11.90;99.90;;;;;;1022832;29;20060;-63
2022/03/26 01:35:59;;;;;;;17.40;13.10;;;11.90;99.90;;;;;;1022863;29;20254;-63
2022/03/26 01:36:30;;;;;;;21.07;15.30;;;11.90;99.90;;;;;;1022970;29;20026;-63
2022/03/26 01:37:04;;;;;;;20.07;14.80;;;11.90;99.90;;;;;;1022481;29;20058;-64
2022/03/26 01:37:35;;;;;;;19.58;14.60;;;11.90;99.90;;;;;;1022477;29;20589;-63
2022/03/26 01:38:06;;;;;;;20.10;13.93;;;11.90;99.90;;;;;;1022490;29;20708;-63
2022/03/26 01:38:37;;;;;;;18.80;14.80;;;11.90;99.90;;;;;;1022153;29;20019;-62
2022/03/26 01:39:11;;;;;;;17.20;14.00;;;11.90;99.90;;;;;;1022810;29;20047;-63
2022/03/26 01:39:41;;;;;;;15.98;13.45;;;11.90;99.90;;;;;;1022555;29;20157;-63
2022/03/26 01:40:12;;;;;;;18.63;15.43;;;11.90;99.90;;;;;;1022395;29;20540;-64
2022/03/26 01:40:42;;;;;;;18.03;14.33;;;11.80;99.90;;;;;;1022410;29;20023;-64
2022/03/26 01:41:13;;;;;;;16.30;13.83;;;11.80;99.90;;;;;;1022355;29;20031;-63
2022/03/26 01:41:44;;;;;;;18.95;14.27;;;11.80;99.90;;;;;;1019177;29;20809;-64
2022/03/26 01:42:14;;;;;;;20.63;14.47;;;11.80;99.90;;;;;;1022284;29;20039;-63
2022/03/26 01:42:45;;;;;;;18.23;14.17;;;11.80;99.90;;;;;;1022505;29;20028;-63
2022/03/26 01:43:16;;;;;;;17.73;14.67;;;11.80;99.90;;;;;;1022467;29;20061;-63
2022/03/26 01:43:46;;;;;;;19.03;14.67;;;11.80;99.90;;;;;;1022434;29;20055;-63
2022/03/26 01:44:17;;;;;;;17.37;14.20;;;11.80;99.90;;;;;;1022513;29;20098;-63
2022/03/26 01:44:48;;;;;;;18.57;13.27;;;11.80;99.90;;;;;;1022838;29;20038;-66
2022/03/26 01:45:18;;;;;;;16.83;14.10;;;11.80;99.90;;;;;;1022744;29;20023;-63
2022/03/26 01:45:49;;;;;;;19.23;14.10;;;11.80;99.90;;;;;;1022816;29;20314;-63
2022/03/26 01:46:20;;;;;;;18.07;13.80;;;11.80;99.90;;;;;;1019523;28;20035;-64
2022/03/26 01:46:54;;;;;;;18.30;13.80;;;11.80;99.90;;;;;;1020763;28;20402;-64
2022/03/26 01:47:24;;;;;;;15.68;13.98;;;11.80;99.90;;;;;;1022667;29;20027;-63
2022/03/26 01:47:56;;;;;;;17.77;14.30;;;11.80;99.90;;;;;;1022752;29;20027;-64
2022/03/26 01:48:26;;;;;;;17.60;15.15;;;11.80;99.90;;;;;;1022876;29;20046;-64
2022/03/26 01:48:57;;;;;;;17.87;14.77;;;11.80;99.90;;;;;;1022446;29;20035;-63
2022/03/26 01:49:28;;;;;;;18.30;14.33;;;11.80;99.90;;;;;;1023036;29;20506;-64
2022/03/26 01:49:58;;;;;;;17.30;14.23;;;11.80;99.90;;;;;;1022776;29;20467;-64
2022/03/26 01:50:30;;;;;;;18.07;14.53;;;11.70;99.90;;;;;;1022858;29;20110;-63
2022/03/26 01:51:14;;;;;;;19.70;15.20;;;11.80;99.90;;;;;;1022708;29;20050;-63
2022/03/26 01:51:44;;;;;;;18.77;13.73;;;11.80;99.90;;;;;;1022951;29;20446;-65
2022/03/26 01:52:15;;;;;;;20.47;14.90;;;11.80;99.90;;;;;;1022719;29;20830;-63
2022/03/26 01:52:46;;;;;;;17.57;13.73;;;11.70;99.90;;;;;;1022912;29;20900;-63
2022/03/26 01:53:16;;;;;;;17.47;14.07;;;11.80;99.90;;;;;;1022622;29;20495;-63
2022/03/26 01:53:50;;;;;;;18.13;14.67;;;11.80;99.90;;;;;;1022713;29;20097;-63
2022/03/26 01:54:21;;;;;;;19.35;13.68;;;11.70;99.90;;;;;;1019165;29;20012;-65
2022/03/26 01:54:52;;;;;;;20.13;13.65;;;11.70;99.90;;;;;;1018850;29;20419;-65
2022/03/26 01:55:24;;;;;;;16.77;14.70;;;11.70;99.90;;;;;;1018767;29;20773;-63
2022/03/26 01:55:55;;;;;;;15.45;13.77;;;11.70;99.90;;;;;;1018804;29;20090;-65
2022/03/26 01:56:26;;;;;;;17.17;13.90;;;11.70;99.90;;;;;;1018632;29;20050;-62
2022/03/26 01:56:57;;;;;;;16.10;14.03;;;11.70;99.90;;;;;;1018782;29;20086;-64
2022/03/26 01:57:28;;;;;;;17.92;14.27;;;11.70;99.90;;;;;;1018698;29;20038;-64
2022/03/26 01:57:59;;;;;;;17.52;13.77;;;11.70;99.90;;;;;;1018223;29;20072;-62
2022/03/26 01:58:29;;;;;;;16.90;13.60;;;11.70;99.90;;;;;;1018397;29;20102;-65
2022/03/26 01:59:00;;;;;;;17.90;13.20;;;11.70;99.90;;;;;;1020401;29;20054;-63
2022/03/26 01:59:32;;;;;;;17.05;13.98;;;11.70;99.90;;;;;;1022526;29;20061;-64
2022/03/26 02:00:05;;;;;;;19.05;13.25;;;11.70;99.90;;;;;;1022781;29;20174;-63
2022/03/26 02:00:36;;;;;;;23.98;15.35;;;11.70;99.90;;;;;;1022221;29;20537;-62
2022/03/26 02:01:07;;;;;;;16.65;13.48;;;11.70;99.90;;;;;;1022474;29;20426;-63
2022/03/26 02:01:38;;;;;;;20.30;14.40;;;11.70;99.90;;;;;;1022494;29;20581;-63
2022/03/26 02:02:09;;;;;;;19.80;15.37;;;11.70;99.90;;;;;;1022508;29;20019;-63
2022/03/26 02:02:43;;;;;;;17.73;13.50;;;11.70;99.90;;;;;;1022623;28;20038;-63
2022/03/26 02:03:14;;;;;;;20.63;15.13;;;11.70;99.90;;;;;;1022301;29;20134;-63
2022/03/26 02:03:44;;;;;;;17.30;14.40;;;11.70;99.90;;;;;;1022451;29;20031;-63
2022/03/26 02:04:15;;;;;;;17.13;14.17;;;11.70;99.90;;;;;;1021977;29;20038;-63
2022/03/26 02:04:46;;;;;;;17.93;14.37;;;11.60;99.90;;;;;;1022694;29;20829;-63
2022/03/26 02:05:19;;;;;;;20.67;14.47;;;11.70;99.90;;;;;;1022810;29;20117;-64
2022/03/26 02:05:49;;;;;;;18.38;13.52;;;11.60;99.90;;;;;;1022743;29;20019;-63
2022/03/26 02:06:22;;;;;;;20.17;14.50;;;11.60;99.90;;;;;;1022729;29;20031;-63
2022/03/26 02:06:53;;;;;;;22.48;14.40;;;11.60;99.90;;;;;;1022705;29;20062;-63
2022/03/26 02:07:24;;;;;;;19.07;15.07;;;11.60;99.90;;;;;;1022905;29;20034;-63
2022/03/26 02:07:55;;;;;;;19.35;14.40;;;11.60;99.90;;;;;;1022713;29;20676;-64
2022/03/26 02:08:25;;;;;;;19.43;14.13;;;11.60;99.90;;;;;;1022995;29;20023;-63
2022/03/26 02:08:56;;;;;;;18.10;13.77;;;11.60;99.90;;;;;;1022079;29;20114;-66
2022/03/26 02:09:27;;;;;;;16.90;13.70;;;11.60;99.90;;;;;;1022294;29;20023;-64
2022/03/26 02:09:57;;;;;;;18.13;13.97;;;11.60;99.90;;;;;;1022448;29;20015;-63
2022/03/26 02:10:28;;;;;;;19.03;14.77;;;11.60;99.90;;;;;;1022541;29;20190;-63
2022/03/26 02:10:58;;;;;;;18.20;14.20;;;11.60;99.90;;;;;;1022692;29;20498;-64
2022/03/26 02:11:35;;;;;;;18.57;13.80;;;11.60;99.90;;;;;;1022803;29;20019;-64
2022/03/26 02:12:27;;;;;;;15.73;13.90;;;11.60;99.90;;;;;;1022593;29;20730;-64
2022/03/26 02:12:58;;;;;;;17.55;13.90;;;11.60;99.90;;;;;;1020883;28;20046;-64
2022/03/26 02:13:51;;;;;;;17.02;14.45;;;11.60;99.90;;;;;;1018836;29;20019;-63
2022/03/26 02:14:24;;;;;;;18.40;13.70;;;11.60;99.90;;;;;;1021079;29;20031;-63
2022/03/26 02:14:56;;;;;;;16.65;13.80;;;11.60;99.90;;;;;;1022745;29;20026;-63
2022/03/26 02:15:27;;;;;;;18.10;14.23;;;11.60;99.90;;;;;;1022894;29;20046;-64
2022/03/26 02:15:57;;;;;;;20.10;14.57;;;11.60;99.90;;;;;;1022413;29;20030;-63
2022/03/26 02:16:29;;;;;;;17.57;14.47;;;11.50;99.90;;;;;;1022716;29;20317;-63
2022/03/26 02:17:00;;;;;;;18.95;13.95;;;11.60;99.90;;;;;;1022736;28;20031;-62
2022/03/26 02:17:31;;;;;;;21.57;14.47;;;11.50;99.90;;;;;;1022679;29;20046;-62
2022/03/26 02:18:01;;;;;;;18.80;13.50;;;11.50;99.90;;;;;;1022824;29;20062;-64
2022/03/26 02:18:32;;;;;;;18.63;14.00;;;11.50;99.90;;;;;;1022634;29;20302;-64
2022/03/26 02:19:04;;;;;;;18.03;13.73;;;11.50;99.90;;;;;;1022782;29;20118;-63
2022/03/26 02:19:35;;;;;;;18.30;14.05;;;11.50;99.90;;;;;;1023576;28;20039;-64
2022/03/26 02:20:09;;;;;;;16.73;12.87;;;11.50;99.90;;;;;;1026795;28;20019;-63
2022/03/26 02:20:39;;;;;;;19.75;14.68;;;11.50;99.90;;;;;;1026842;28;20023;-63
2022/03/26 02:21:10;;;;;;;20.60;14.60;;;11.50;99.90;;;;;;1025701;28;20094;-64
2022/03/26 02:21:41;;;;;;;18.17;13.43;;;11.50;99.90;;;;;;1022805;29;20209;-65
2022/03/26 02:22:12;;;;;;;17.75;14.43;;;11.50;99.90;;;;;;1022716;29;20031;-62
2022/03/26 02:22:42;;;;;;;18.30;13.70;;;11.50;99.90;;;;;;1022801;29;20027;-63
2022/03/26 02:23:13;;;;;;;16.47;13.30;;;11.50;99.90;;;;;;1018828;29;20032;-63
2022/03/26 02:23:44;;;;;;;18.90;14.00;;;11.50;99.90;;;;;;1018884;29;20502;-64
2022/03/26 02:24:16;;;;;;;16.80;14.10;;;11.50;99.90;;;;;;1018549;29;20510;-64
2022/03/26 02:24:47;;;;;;;16.95;14.05;;;11.50;99.90;;;;;;1018756;29;20478;-63
2022/03/26 02:25:18;;;;;;;17.15;13.73;;;11.50;99.90;;;;;;1018733;29;20082;-63
2022/03/26 02:25:48;;;;;;;15.40;12.50;;;11.50;99.90;;;;;;1019035;29;20110;-63
2022/03/26 02:26:26;;;;;;;16.40;13.57;;;11.50;99.90;;;;;;1018754;29;20386;-64
2022/03/26 02:26:56;;;;;;;17.98;14.27;;;11.50;99.90;;;;;;1018549;29;20748;-63
2022/03/26 02:27:28;;;;;;;19.50;13.70;;;11.50;99.90;;;;;;1021864;29;20793;-64
2022/03/26 02:27:58;;;;;;;20.13;14.57;;;11.50;99.90;;;;;;1022299;29;20483;-64
2022/03/26 02:28:31;;;;;;;15.27;13.20;;;11.40;99.90;;;;;;1022457;29;20542;-64
2022/03/26 02:29:12;;;;;;;16.35;13.68;;;11.40;99.90;;;;;;1022299;29;20031;-64
2022/03/26 02:29:43;;;;;;;15.27;13.50;;;11.40;99.90;;;;;;1022459;29;20031;-64
2022/03/26 02:30:13;;;;;;;20.23;14.43;;;11.40;99.90;;;;;;1022757;29;20027;-63
2022/03/26 02:30:44;;;;;;;16.00;13.93;;;11.40;99.90;;;;;;1022786;29;20094;-63
2022/03/26 02:31:15;;;;;;;18.07;13.47;;;11.40;99.90;;;;;;1022599;28;20106;-64
2022/03/26 02:31:46;;;;;;;21.40;14.10;;;11.40;99.90;;;;;;1022809;28;20019;-63
2022/03/26 02:32:24;;;;;;;16.90;13.93;;;11.40;99.90;;;;;;1022167;29;20020;-62
2022/03/26 02:32:55;;;;;;;17.20;14.00;;;11.40;99.90;;;;;;1022315;29;20015;-64
2022/03/26 02:33:26;;;;;;;20.37;14.03;;;11.40;99.90;;;;;;1022579;29;20055;-64
2022/03/26 02:33:56;;;;;;;16.20;13.07;;;11.40;99.90;;;;;;1022399;29;20074;-64
2022/03/26 02:34:27;;;;;;;15.67;12.73;;;11.40;99.90;;;;;;1022679;28;20035;-64
2022/03/26 02:34:58;;;;;;;15.27;12.40;;;11.40;99.90;;;;;;1022411;28;20034;-64
2022/03/26 02:35:28;;;;;;;17.27;14.03;;;11.40;99.90;;;;;;1022769;29;20474;-63
2022/03/26 02:35:59;;;;;;;17.40;13.80;;;11.40;99.90;;;;;;1022696;29;20803;-63
2022/03/26 02:36:29;;;;;;;16.70;13.63;;;11.40;99.90;;;;;;1022699;29;20386;-63
2022/03/26 02:37:00;;;;;;;21.30;13.83;;;11.40;99.90;;;;;;1022517;29;20105;-63
2022/03/26 02:37:32;;;;;;;18.67;14.90;;;11.40;99.90;;;;;;1022668;28;20082;-64
2022/03/26 02:38:02;;;;;;;18.77;14.48;;;11.40;99.90;;;;;;1022729;28;20027;-64
2022/03/26 02:38:33;;;;;;;15.60;13.70;;;11.40;99.90;;;;;;1022656;28;20030;-63